Ana Sayfa
METAR-TAF:

METAR-TAF

Havaalanları :

Bağdat Uluslararası Havaalanı

Bağdat, Irak

Enlem: 33-15-45N, Boylam: 44-14-04E, yükseklik: 35 m

Güncel hava durumu gözlemi

Rapor saat 01:00 UTC de 1 saat ve 8 dakika önce yapıldı.
Rüzgar doğu/güneydoğudan 5 kt
Sıcaklık 11°C
Nem 87%
Basınç 1021 hPa
Görüş mesafesi 10 km veya daha fazla
1500 m altında bulut yok ve kümülonimbus yok

METAR: ORBI 120100Z 12005KT CAVOK 11/09 Q1021 NOSIG

Saat: 05:08 (02:08 UTC)

Tahmin

Rapor saat 22:00 UTC de 4 saat ve 8 dakika önce yapıldı.
Ayın 12'si saat 00 UTC'den ayın 12'si saat 24 UTC'ye kadar geçerli Tahmin
Rüzgar güney/güneybatıdan 5 kt
Görüş mesafesi: 7000 m
Dönüşüyor
ayın 12'si saat 01 UTC'den ayın 12'si saat 03 UTC'ye kadar
Görüş mesafesi: 3000 m
Pus
Dönüşüyor
ayın 12'si saat 06 UTC'den ayın 12'si saat 08 UTC'ye kadar
Görüş mesafesi 10 km veya daha fazla
1500 m altında bulut yok ve kümülonimbus yok

TAF: ORBI 112200Z 1200/1224 20005KT 7000 NSC BECMG 1201/1203 3000 BR BECMG 1206/1208 CAVOK

4.000'den fazla havaalanı için hava durumu gözlemleri ve tahminleri (METAR ve TAF raporları).

Kullanılabilir istasyonlar harita üzerinde sarı ve kırmızı noktalarla gösterilir.

İstasyonun adını görmek için fareyi noktanın üzerinde gezdirin.

Sonrasında hava gözlem ve tahminlerini görmek için tıklayın.

Haritayı değiştirmek için: yaklaştırmak için siyah artı işaretli yeşil düğmeye ve uzaklaştırmak için de eksi işaretli düğmeye hızla tıklayın; bitişik haritalar için yeşil okları kullanın.


METAR-TAF: